sensor_id;sensor_type;location;lat;lon;timestamp;P1;P2;P0
73973;PMS5003;62336;-26.094;27.994;2023-03-05T00:00:20;36;36;
73973;PMS5003;62336;-26.094;27.994;2023-03-05T00:02:46;37;37;
73973;PMS5003;62336;-26.094;27.994;2023-03-05T00:05:12;35;32;
73973;PMS5003;62336;-26.094;27.994;2023-03-05T00:07:37;37;36;
73973;PMS5003;62336;-26.094;27.994;2023-03-05T00:10:03;36;34;
73973;PMS5003;62336;-26.094;27.994;2023-03-05T00:12:29;35;34;
73973;PMS5003;62336;-26.094;27.994;2023-03-05T00:14:54;38;38;
73973;PMS5003;62336;-26.094;27.994;2023-03-05T00:17:19;39;36;
73973;PMS5003;62336;-26.094;27.994;2023-03-05T00:19:45;36;35;
73973;PMS5003;62336;-26.094;27.994;2023-03-05T00:22:10;43;42;
73973;PMS5003;62336;-26.094;27.994;2023-03-05T00:24:36;33;32;
73973;PMS5003;62336;-26.094;27.994;2023-03-05T00:27:01;36;35;
73973;PMS5003;62336;-26.094;27.994;2023-03-05T00:29:28;37;34;
73973;PMS5003;62336;-26.094;27.994;2023-03-05T00:31:52;35;33;
73973;PMS5003;62336;-26.094;27.994;2023-03-05T00:34:18;34;32;
73973;PMS5003;62336;-26.094;27.994;2023-03-05T00:36:44;38;36;
73973;PMS5003;62336;-26.094;27.994;2023-03-05T00:39:08;41;37;
73973;PMS5003;62336;-26.094;27.994;2023-03-05T00:41:35;34;32;
73973;PMS5003;62336;-26.094;27.994;2023-03-05T00:44:00;42;39;
73973;PMS5003;62336;-26.094;27.994;2023-03-05T00:46:25;37;34;
73973;PMS5003;62336;-26.094;27.994;2023-03-05T00:48:50;35;34;
73973;PMS5003;62336;-26.094;27.994;2023-03-05T00:51:16;37;35;
73973;PMS5003;62336;-26.094;27.994;2023-03-05T00:53:41;42;40;
73973;PMS5003;62336;-26.094;27.994;2023-03-05T00:56:07;32;32;
73973;PMS5003;62336;-26.094;27.994;2023-03-05T00:58:32;39;38;
73973;PMS5003;62336;-26.094;27.994;2023-03-05T01:00:57;37;35;
73973;PMS5003;62336;-26.094;27.994;2023-03-05T01:03:23;37;37;
73973;PMS5003;62336;-26.094;27.994;2023-03-05T01:05:48;40;36;
73973;PMS5003;62336;-26.094;27.994;2023-03-05T01:08:13;38;36;
73973;PMS5003;62336;-26.094;27.994;2023-03-05T01:10:39;35;34;
73973;PMS5003;62336;-26.094;27.994;2023-03-05T01:13:04;35;35;
73973;PMS5003;62336;-26.094;27.994;2023-03-05T01:15:30;38;34;
73973;PMS5003;62336;-26.094;27.994;2023-03-05T01:17:55;37;35;
73973;PMS5003;62336;-26.094;27.994;2023-03-05T01:20:20;37;35;
73973;PMS5003;62336;-26.094;27.994;2023-03-05T01:22:46;37;35;
73973;PMS5003;62336;-26.094;27.994;2023-03-05T01:25:11;36;33;
73973;PMS5003;62336;-26.094;27.994;2023-03-05T01:27:37;42;40;
73973;PMS5003;62336;-26.094;27.994;2023-03-05T01:30:02;38;38;
73973;PMS5003;62336;-26.094;27.994;2023-03-05T01:32:27;40;38;
73973;PMS5003;62336;-26.094;27.994;2023-03-05T01:34:52;34;34;
73973;PMS5003;62336;-26.094;27.994;2023-03-05T01:37:24;35;34;
73973;PMS5003;62336;-26.094;27.994;2023-03-05T01:39:44;34;32;
73973;PMS5003;62336;-26.094;27.994;2023-03-05T01:42:09;33;33;
73973;PMS5003;62336;-26.094;27.994;2023-03-05T01:44:35;34;34;
73973;PMS5003;62336;-26.094;27.994;2023-03-05T01:47:00;32;31;
73973;PMS5003;62336;-26.094;27.994;2023-03-05T01:49:29;37;37;
73973;PMS5003;62336;-26.094;27.994;2023-03-05T01:51:57;35;33;
73973;PMS5003;62336;-26.094;27.994;2023-03-05T01:54:18;36;33;
73973;PMS5003;62336;-26.094;27.994;2023-03-05T01:56:43;35;33;
73973;PMS5003;62336;-26.094;27.994;2023-03-05T01:59:08;38;36;
73973;PMS5003;62336;-26.094;27.994;2023-03-05T02:01:37;34;33;
73973;PMS5003;62336;-26.094;27.994;2023-03-05T02:03:59;35;34;
73973;PMS5003;62336;-26.094;27.994;2023-03-05T02:06:25;32;31;
73973;PMS5003;62336;-26.094;27.994;2023-03-05T02:08:50;35;34;
73973;PMS5003;62336;-26.094;27.994;2023-03-05T02:11:16;37;36;
73973;PMS5003;62336;-26.094;27.994;2023-03-05T02:13:41;37;37;
73973;PMS5003;62336;-26.094;27.994;2023-03-05T02:16:07;33;32;
73973;PMS5003;62336;-26.094;27.994;2023-03-05T02:18:32;34;33;
73973;PMS5003;62336;-26.094;27.994;2023-03-05T02:20:59;33;31;
73973;PMS5003;62336;-26.094;27.994;2023-03-05T02:23:24;28;26;
73973;PMS5003;62336;-26.094;27.994;2023-03-05T02:25:48;32;29;
73973;PMS5003;62336;-26.094;27.994;2023-03-05T02:28:15;33;32;
73973;PMS5003;62336;-26.094;27.994;2023-03-05T02:30:39;28;28;
73973;PMS5003;62336;-26.094;27.994;2023-03-05T02:33:04;29;27;
73973;PMS5003;62336;-26.094;27.994;2023-03-05T02:35:29;37;37;
73973;PMS5003;62336;-26.094;27.994;2023-03-05T02:37:54;29;28;
73973;PMS5003;62336;-26.094;27.994;2023-03-05T02:40:19;33;30;
73973;PMS5003;62336;-26.094;27.994;2023-03-05T02:42:45;30;30;
73973;PMS5003;62336;-26.094;27.994;2023-03-05T02:45:10;31;30;
73973;PMS5003;62336;-26.094;27.994;2023-03-05T02:47:36;33;31;
73973;PMS5003;62336;-26.094;27.994;2023-03-05T02:50:01;30;30;
73973;PMS5003;62336;-26.094;27.994;2023-03-05T02:52:27;31;30;
73973;PMS5003;62336;-26.094;27.994;2023-03-05T02:54:52;22;22;
73973;PMS5003;62336;-26.094;27.994;2023-03-05T02:57:18;22;21;
73973;PMS5003;62336;-26.094;27.994;2023-03-05T02:59:43;24;21;
73973;PMS5003;62336;-26.094;27.994;2023-03-05T03:02:08;21;20;
73973;PMS5003;62336;-26.094;27.994;2023-03-05T03:04:33;19;19;
73973;PMS5003;62336;-26.094;27.994;2023-03-05T03:06:59;20;20;
73973;PMS5003;62336;-26.094;27.994;2023-03-05T03:09:24;18;18;
73973;PMS5003;62336;-26.094;27.994;2023-03-05T03:11:49;21;20;
73973;PMS5003;62336;-26.094;27.994;2023-03-05T03:14:15;18;18;
73973;PMS5003;62336;-26.094;27.994;2023-03-05T03:16:40;17;17;
73973;PMS5003;62336;-26.094;27.994;2023-03-05T03:19:05;14;14;
73973;PMS5003;62336;-26.094;27.994;2023-03-05T03:21:31;18;17;
73973;PMS5003;62336;-26.094;27.994;2023-03-05T03:23:57;17;16;
73973;PMS5003;62336;-26.094;27.994;2023-03-05T03:26:22;17;16;
73973;PMS5003;62336;-26.094;27.994;2023-03-05T03:28:48;15;14;
73973;PMS5003;62336;-26.094;27.994;2023-03-05T03:31:14;15;14;
73973;PMS5003;62336;-26.094;27.994;2023-03-05T03:33:39;13;12;
73973;PMS5003;62336;-26.094;27.994;2023-03-05T03:36:05;13;13;
73973;PMS5003;62336;-26.094;27.994;2023-03-05T03:38:31;16;16;
73973;PMS5003;62336;-26.094;27.994;2023-03-05T03:40:57;13;13;
73973;PMS5003;62336;-26.094;27.994;2023-03-05T03:43:22;15;15;
73973;PMS5003;62336;-26.094;27.994;2023-03-05T03:45:48;14;14;
73973;PMS5003;62336;-26.094;27.994;2023-03-05T03:48:13;13;12;
73973;PMS5003;62336;-26.094;27.994;2023-03-05T03:50:40;14;14;
73973;PMS5003;62336;-26.094;27.994;2023-03-05T03:53:05;13;13;
73973;PMS5003;62336;-26.094;27.994;2023-03-05T03:55:31;13;13;
73973;PMS5003;62336;-26.094;27.994;2023-03-05T03:57:56;13;12;
73973;PMS5003;62336;-26.094;27.994;2023-03-05T04:00:22;12;12;
73973;PMS5003;62336;-26.094;27.994;2023-03-05T04:02:48;13;12;
73973;PMS5003;62336;-26.094;27.994;2023-03-05T04:05:14;14;14;
73973;PMS5003;62336;-26.094;27.994;2023-03-05T04:07:39;13;13;
73973;PMS5003;62336;-26.094;27.994;2023-03-05T04:10:05;15;15;
73973;PMS5003;62336;-26.094;27.994;2023-03-05T04:12:31;12;12;
73973;PMS5003;62336;-26.094;27.994;2023-03-05T04:14:56;12;12;
73973;PMS5003;62336;-26.094;27.994;2023-03-05T04:17:22;13;12;
73973;PMS5003;62336;-26.094;27.994;2023-03-05T04:19:48;13;11;
73973;PMS5003;62336;-26.094;27.994;2023-03-05T04:22:14;12;12;
73973;PMS5003;62336;-26.094;27.994;2023-03-05T04:24:39;13;13;
73973;PMS5003;62336;-26.094;27.994;2023-03-05T04:27:05;15;15;
73973;PMS5003;62336;-26.094;27.994;2023-03-05T04:29:30;16;16;
73973;PMS5003;62336;-26.094;27.994;2023-03-05T04:31:56;15;15;
73973;PMS5003;62336;-26.094;27.994;2023-03-05T04:34:22;16;14;
73973;PMS5003;62336;-26.094;27.994;2023-03-05T04:36:47;15;13;
73973;PMS5003;62336;-26.094;27.994;2023-03-05T04:39:13;14;12;
73973;PMS5003;62336;-26.094;27.994;2023-03-05T04:41:39;16;16;
73973;PMS5003;62336;-26.094;27.994;2023-03-05T04:44:05;12;12;
73973;PMS5003;62336;-26.094;27.994;2023-03-05T04:46:30;14;13;
73973;PMS5003;62336;-26.094;27.994;2023-03-05T04:48:56;14;14;
73973;PMS5003;62336;-26.094;27.994;2023-03-05T04:51:22;16;15;
73973;PMS5003;62336;-26.094;27.994;2023-03-05T04:53:47;16;15;
73973;PMS5003;62336;-26.094;27.994;2023-03-05T04:56:12;19;18;
73973;PMS5003;62336;-26.094;27.994;2023-03-05T04:58:38;14;13;
73973;PMS5003;62336;-26.094;27.994;2023-03-05T05:01:06;18;18;
73973;PMS5003;62336;-26.094;27.994;2023-03-05T05:03:30;14;13;
73973;PMS5003;62336;-26.094;27.994;2023-03-05T05:05:57;15;15;
73973;PMS5003;62336;-26.094;27.994;2023-03-05T05:08:22;13;13;
73973;PMS5003;62336;-26.094;27.994;2023-03-05T05:13:13;15;12;
73973;PMS5003;62336;-26.094;27.994;2023-03-05T05:15:39;16;15;
73973;PMS5003;62336;-26.094;27.994;2023-03-05T05:18:06;17;15;
73973;PMS5003;62336;-26.094;27.994;2023-03-05T05:20:30;14;14;
73973;PMS5003;62336;-26.094;27.994;2023-03-05T05:22:55;19;19;
73973;PMS5003;62336;-26.094;27.994;2023-03-05T05:25:20;11;11;
73973;PMS5003;62336;-26.094;27.994;2023-03-05T05:27:46;13;12;
73973;PMS5003;62336;-26.094;27.994;2023-03-05T05:30:12;14;13;
73973;PMS5003;62336;-26.094;27.994;2023-03-05T05:32:38;17;16;
73973;PMS5003;62336;-26.094;27.994;2023-03-05T05:35:03;13;13;
73973;PMS5003;62336;-26.094;27.994;2023-03-05T05:37:28;15;15;
73973;PMS5003;62336;-26.094;27.994;2023-03-05T05:39:53;15;14;
73973;PMS5003;62336;-26.094;27.994;2023-03-05T05:42:20;15;13;
73973;PMS5003;62336;-26.094;27.994;2023-03-05T05:44:44;16;14;
73973;PMS5003;62336;-26.094;27.994;2023-03-05T05:47:11;17;16;
73973;PMS5003;62336;-26.094;27.994;2023-03-05T05:49:35;14;14;
73973;PMS5003;62336;-26.094;27.994;2023-03-05T05:52:01;14;13;
73973;PMS5003;62336;-26.094;27.994;2023-03-05T05:54:26;18;14;
73973;PMS5003;62336;-26.094;27.994;2023-03-05T05:56:52;17;14;
73973;PMS5003;62336;-26.094;27.994;2023-03-05T05:59:17;15;15;
73973;PMS5003;62336;-26.094;27.994;2023-03-05T06:01:43;15;14;
73973;PMS5003;62336;-26.094;27.994;2023-03-05T06:04:09;15;15;
73973;PMS5003;62336;-26.094;27.994;2023-03-05T06:06:34;15;15;
73973;PMS5003;62336;-26.094;27.994;2023-03-05T06:09:00;15;14;
73973;PMS5003;62336;-26.094;27.994;2023-03-05T06:11:26;12;12;
73973;PMS5003;62336;-26.094;27.994;2023-03-05T06:13:51;16;14;
73973;PMS5003;62336;-26.094;27.994;2023-03-05T06:16:18;13;13;
73973;PMS5003;62336;-26.094;27.994;2023-03-05T06:18:44;17;15;
73973;PMS5003;62336;-26.094;27.994;2023-03-05T06:21:09;15;15;
73973;PMS5003;62336;-26.094;27.994;2023-03-05T06:23:35;17;16;
73973;PMS5003;62336;-26.094;27.994;2023-03-05T06:25:59;17;16;
73973;PMS5003;62336;-26.094;27.994;2023-03-05T06:28:24;18;17;
73973;PMS5003;62336;-26.094;27.994;2023-03-05T06:30:49;18;18;
73973;PMS5003;62336;-26.094;27.994;2023-03-05T06:33:14;18;17;
73973;PMS5003;62336;-26.094;27.994;2023-03-05T06:35:41;17;17;
73973;PMS5003;62336;-26.094;27.994;2023-03-05T06:38:05;18;18;
73973;PMS5003;62336;-26.094;27.994;2023-03-05T06:40:30;18;18;
73973;PMS5003;62336;-26.094;27.994;2023-03-05T06:42:55;16;16;
73973;PMS5003;62336;-26.094;27.994;2023-03-05T06:45:21;19;18;
73973;PMS5003;62336;-26.094;27.994;2023-03-05T06:47:46;17;17;
73973;PMS5003;62336;-26.094;27.994;2023-03-05T06:50:11;17;17;
73973;PMS5003;62336;-26.094;27.994;2023-03-05T06:52:37;17;17;
73973;PMS5003;62336;-26.094;27.994;2023-03-05T06:55:03;19;18;
73973;PMS5003;62336;-26.094;27.994;2023-03-05T06:57:28;18;17;
73973;PMS5003;62336;-26.094;27.994;2023-03-05T06:59:54;18;18;
73973;PMS5003;62336;-26.094;27.994;2023-03-05T07:02:19;18;18;
73973;PMS5003;62336;-26.094;27.994;2023-03-05T07:04:45;23;21;
73973;PMS5003;62336;-26.094;27.994;2023-03-05T07:07:10;17;16;
73973;PMS5003;62336;-26.094;27.994;2023-03-05T07:09:35;20;20;
73973;PMS5003;62336;-26.094;27.994;2023-03-05T07:12:01;22;20;
73973;PMS5003;62336;-26.094;27.994;2023-03-05T07:14:27;21;21;
73973;PMS5003;62336;-26.094;27.994;2023-03-05T07:16:52;18;18;
73973;PMS5003;62336;-26.094;27.994;2023-03-05T07:19:18;22;20;
73973;PMS5003;62336;-26.094;27.994;2023-03-05T07:21:44;19;18;
73973;PMS5003;62336;-26.094;27.994;2023-03-05T07:24:10;23;23;
73973;PMS5003;62336;-26.094;27.994;2023-03-05T07:26:35;19;19;
73973;PMS5003;62336;-26.094;27.994;2023-03-05T07:29:00;22;21;
73973;PMS5003;62336;-26.094;27.994;2023-03-05T07:31:26;22;20;
73973;PMS5003;62336;-26.094;27.994;2023-03-05T07:33:51;19;18;
73973;PMS5003;62336;-26.094;27.994;2023-03-05T07:36:17;16;16;
73973;PMS5003;62336;-26.094;27.994;2023-03-05T07:38:43;18;18;
73973;PMS5003;62336;-26.094;27.994;2023-03-05T07:41:08;19;19;
73973;PMS5003;62336;-26.094;27.994;2023-03-05T07:43:33;19;18;
73973;PMS5003;62336;-26.094;27.994;2023-03-05T07:45:58;20;19;
73973;PMS5003;62336;-26.094;27.994;2023-03-05T07:48:24;16;16;
73973;PMS5003;62336;-26.094;27.994;2023-03-05T07:50:52;17;15;
73973;PMS5003;62336;-26.094;27.994;2023-03-05T07:53:15;16;16;
73973;PMS5003;62336;-26.094;27.994;2023-03-05T07:55:41;20;18;
73973;PMS5003;62336;-26.094;27.994;2023-03-05T07:58:07;13;13;
73973;PMS5003;62336;-26.094;27.994;2023-03-05T08:00:33;14;12;
73973;PMS5003;62336;-26.094;27.994;2023-03-05T08:02:58;21;20;
73973;PMS5003;62336;-26.094;27.994;2023-03-05T08:05:24;13;13;
73973;PMS5003;62336;-26.094;27.994;2023-03-05T08:07:49;17;17;
73973;PMS5003;62336;-26.094;27.994;2023-03-05T08:10:14;18;18;
73973;PMS5003;62336;-26.094;27.994;2023-03-05T08:12:40;18;17;
73973;PMS5003;62336;-26.094;27.994;2023-03-05T08:15:06;19;18;
73973;PMS5003;62336;-26.094;27.994;2023-03-05T08:17:31;17;16;
73973;PMS5003;62336;-26.094;27.994;2023-03-05T08:19:56;16;16;
73973;PMS5003;62336;-26.094;27.994;2023-03-05T08:22:22;17;17;
73973;PMS5003;62336;-26.094;27.994;2023-03-05T08:24:48;15;15;
73973;PMS5003;62336;-26.094;27.994;2023-03-05T08:27:13;15;15;
73973;PMS5003;62336;-26.094;27.994;2023-03-05T08:29:38;18;18;
73973;PMS5003;62336;-26.094;27.994;2023-03-05T08:32:04;15;15;
73973;PMS5003;62336;-26.094;27.994;2023-03-05T08:34:30;14;14;
73973;PMS5003;62336;-26.094;27.994;2023-03-05T08:36:54;16;16;
73973;PMS5003;62336;-26.094;27.994;2023-03-05T08:39:20;13;13;
73973;PMS5003;62336;-26.094;27.994;2023-03-05T08:41:48;16;15;
73973;PMS5003;62336;-26.094;27.994;2023-03-05T08:44:12;18;18;
73973;PMS5003;62336;-26.094;27.994;2023-03-05T08:46:38;15;14;
73973;PMS5003;62336;-26.094;27.994;2023-03-05T08:49:02;16;14;
73973;PMS5003;62336;-26.094;27.994;2023-03-05T08:51:28;15;15;
73973;PMS5003;62336;-26.094;27.994;2023-03-05T08:53:54;16;16;
73973;PMS5003;62336;-26.094;27.994;2023-03-05T08:56:20;17;16;
73973;PMS5003;62336;-26.094;27.994;2023-03-05T08:58:45;14;14;
73973;PMS5003;62336;-26.094;27.994;2023-03-05T09:01:11;14;13;
73973;PMS5003;62336;-26.094;27.994;2023-03-05T09:03:37;15;14;
73973;PMS5003;62336;-26.094;27.994;2023-03-05T09:06:04;15;15;
73973;PMS5003;62336;-26.094;27.994;2023-03-05T09:08:27;12;12;
73973;PMS5003;62336;-26.094;27.994;2023-03-05T09:10:53;15;15;
73973;PMS5003;62336;-26.094;27.994;2023-03-05T09:13:19;16;14;
73973;PMS5003;62336;-26.094;27.994;2023-03-05T09:15:44;13;13;
73973;PMS5003;62336;-26.094;27.994;2023-03-05T09:18:10;14;12;
73973;PMS5003;62336;-26.094;27.994;2023-03-05T09:20:35;11;11;
73973;PMS5003;62336;-26.094;27.994;2023-03-05T09:23:00;10;10;
73973;PMS5003;62336;-26.094;27.994;2023-03-05T09:25:26;11;10;
73973;PMS5003;62336;-26.094;27.994;2023-03-05T09:27:52;14;14;
73973;PMS5003;62336;-26.094;27.994;2023-03-05T09:30:18;11;11;
73973;PMS5003;62336;-26.094;27.994;2023-03-05T09:32:44;10;10;
73973;PMS5003;62336;-26.094;27.994;2023-03-05T09:35:09;10;10;
73973;PMS5003;62336;-26.094;27.994;2023-03-05T09:37:35;10;10;
73973;PMS5003;62336;-26.094;27.994;2023-03-05T09:40:01;12;12;
73973;PMS5003;62336;-26.094;27.994;2023-03-05T09:42:29;10;10;
73973;PMS5003;62336;-26.094;27.994;2023-03-05T09:44:55;11;9;
73973;PMS5003;62336;-26.094;27.994;2023-03-05T09:47:22;9;9;
73973;PMS5003;62336;-26.094;27.994;2023-03-05T09:49:46;10;10;
73973;PMS5003;62336;-26.094;27.994;2023-03-05T09:52:12;8;7;
73973;PMS5003;62336;-26.094;27.994;2023-03-05T09:54:37;9;9;
73973;PMS5003;62336;-26.094;27.994;2023-03-05T09:57:02;10;9;
73973;PMS5003;62336;-26.094;27.994;2023-03-05T09:59:29;9;9;
73973;PMS5003;62336;-26.094;27.994;2023-03-05T10:01:54;10;9;
73973;PMS5003;62336;-26.094;27.994;2023-03-05T10:04:20;10;9;
73973;PMS5003;62336;-26.094;27.994;2023-03-05T10:06:48;10;10;
73973;PMS5003;62336;-26.094;27.994;2023-03-05T10:09:12;10;10;
73973;PMS5003;62336;-26.094;27.994;2023-03-05T10:11:38;12;12;
73973;PMS5003;62336;-26.094;27.994;2023-03-05T10:14:02;8;8;
73973;PMS5003;62336;-26.094;27.994;2023-03-05T10:16:34;8;7;
73973;PMS5003;62336;-26.094;27.994;2023-03-05T10:18:52;12;12;
73973;PMS5003;62336;-26.094;27.994;2023-03-05T10:21:17;9;9;
73973;PMS5003;62336;-26.094;27.994;2023-03-05T10:23:49;9;9;
73973;PMS5003;62336;-26.094;27.994;2023-03-05T10:26:10;10;10;
73973;PMS5003;62336;-26.094;27.994;2023-03-05T10:28:37;12;11;
73973;PMS5003;62336;-26.094;27.994;2023-03-05T10:31:02;8;8;
73973;PMS5003;62336;-26.094;27.994;2023-03-05T10:33:25;11;11;
73973;PMS5003;62336;-26.094;27.994;2023-03-05T10:35:53;11;11;
73973;PMS5003;62336;-26.094;27.994;2023-03-05T10:40:40;10;9;
73973;PMS5003;62336;-26.094;27.994;2023-03-05T10:43:10;10;8;
73973;PMS5003;62336;-26.094;27.994;2023-03-05T10:45:33;10;10;
73973;PMS5003;62336;-26.094;27.994;2023-03-05T10:47:58;11;11;
73973;PMS5003;62336;-26.094;27.994;2023-03-05T10:50:23;10;10;
73973;PMS5003;62336;-26.094;27.994;2023-03-05T10:52:50;8;7;
73973;PMS5003;62336;-26.094;27.994;2023-03-05T10:55:16;10;8;
73973;PMS5003;62336;-26.094;27.994;2023-03-05T10:57:40;10;9;
73973;PMS5003;62336;-26.094;27.994;2023-03-05T11:00:07;9;8;
73973;PMS5003;62336;-26.094;27.994;2023-03-05T11:02:29;11;10;
73973;PMS5003;62336;-26.094;27.994;2023-03-05T11:04:54;9;9;
73973;PMS5003;62336;-26.094;27.994;2023-03-05T11:09:51;10;10;
73973;PMS5003;62336;-26.094;27.994;2023-03-05T11:12:10;11;10;
73973;PMS5003;62336;-26.094;27.994;2023-03-05T11:14:36;9;9;
73973;PMS5003;62336;-26.094;27.994;2023-03-05T11:17:01;9;9;
73973;PMS5003;62336;-26.094;27.994;2023-03-05T11:19:26;9;8;
73973;PMS5003;62336;-26.094;27.994;2023-03-05T11:24:16;9;8;
73973;PMS5003;62336;-26.094;27.994;2023-03-05T11:26:47;9;9;
73973;PMS5003;62336;-26.094;27.994;2023-03-05T11:29:12;8;7;
73973;PMS5003;62336;-26.094;27.994;2023-03-05T11:31:31;10;9;
73973;PMS5003;62336;-26.094;27.994;2023-03-05T11:33:57;12;11;
73973;PMS5003;62336;-26.094;27.994;2023-03-05T11:36:23;8;8;
73973;PMS5003;62336;-26.094;27.994;2023-03-05T11:38:50;10;9;
73973;PMS5003;62336;-26.094;27.994;2023-03-05T11:41:13;10;10;
73973;PMS5003;62336;-26.094;27.994;2023-03-05T11:43:39;10;10;
73973;PMS5003;62336;-26.094;27.994;2023-03-05T11:46:04;11;11;
73973;PMS5003;62336;-26.094;27.994;2023-03-05T11:48:31;9;9;
73973;PMS5003;62336;-26.094;27.994;2023-03-05T11:50:55;10;10;
73973;PMS5003;62336;-26.094;27.994;2023-03-05T11:53:21;8;8;
73973;PMS5003;62336;-26.094;27.994;2023-03-05T11:55:45;6;6;
73973;PMS5003;62336;-26.094;27.994;2023-03-05T11:58:16;8;8;
73973;PMS5003;62336;-26.094;27.994;2023-03-05T12:00:35;8;8;
73973;PMS5003;62336;-26.094;27.994;2023-03-05T12:03:01;8;7;
73973;PMS5003;62336;-26.094;27.994;2023-03-05T12:05:25;7;7;
73973;PMS5003;62336;-26.094;27.994;2023-03-05T12:07:51;7;7;
73973;PMS5003;62336;-26.094;27.994;2023-03-05T12:10:15;6;6;
73973;PMS5003;62336;-26.094;27.994;2023-03-05T12:12:41;6;6;
73973;PMS5003;62336;-26.094;27.994;2023-03-05T12:17:31;7;7;
73973;PMS5003;62336;-26.094;27.994;2023-03-05T12:19:56;7;7;
73973;PMS5003;62336;-26.094;27.994;2023-03-05T12:22:21;5;5;
73973;PMS5003;62336;-26.094;27.994;2023-03-05T12:24:45;7;7;
73973;PMS5003;62336;-26.094;27.994;2023-03-05T12:27:11;6;6;
73973;PMS5003;62336;-26.094;27.994;2023-03-05T12:29:37;7;7;
73973;PMS5003;62336;-26.094;27.994;2023-03-05T12:32:01;5;5;
73973;PMS5003;62336;-26.094;27.994;2023-03-05T12:34:35;7;7;
73973;PMS5003;62336;-26.094;27.994;2023-03-05T12:36:51;8;8;
73973;PMS5003;62336;-26.094;27.994;2023-03-05T12:41:41;7;7;
73973;PMS5003;62336;-26.094;27.994;2023-03-05T12:46:31;6;5;
73973;PMS5003;62336;-26.094;27.994;2023-03-05T12:48:57;8;8;
73973;PMS5003;62336;-26.094;27.994;2023-03-05T12:51:28;7;7;
73973;PMS5003;62336;-26.094;27.994;2023-03-05T12:53:49;6;6;
73973;PMS5003;62336;-26.094;27.994;2023-03-05T12:56:15;9;8;
73973;PMS5003;62336;-26.094;27.994;2023-03-05T12:58:38;8;8;
73973;PMS5003;62336;-26.094;27.994;2023-03-05T13:01:03;7;7;
73973;PMS5003;62336;-26.094;27.994;2023-03-05T13:03:28;7;7;
73973;PMS5003;62336;-26.094;27.994;2023-03-05T13:05:54;7;7;
73973;PMS5003;62336;-26.094;27.994;2023-03-05T13:08:20;6;6;
73973;PMS5003;62336;-26.094;27.994;2023-03-05T13:10:44;10;8;
73973;PMS5003;62336;-26.094;27.994;2023-03-05T13:13:10;8;8;
73973;PMS5003;62336;-26.094;27.994;2023-03-05T13:15:33;6;6;
73973;PMS5003;62336;-26.094;27.994;2023-03-05T13:17:58;8;8;
73973;PMS5003;62336;-26.094;27.994;2023-03-05T13:20:25;9;9;
73973;PMS5003;62336;-26.094;27.994;2023-03-05T13:22:48;9;8;
73973;PMS5003;62336;-26.094;27.994;2023-03-05T13:25:14;11;10;
73973;PMS5003;62336;-26.094;27.994;2023-03-05T13:27:38;10;10;
73973;PMS5003;62336;-26.094;27.994;2023-03-05T13:30:04;8;8;
73973;PMS5003;62336;-26.094;27.994;2023-03-05T13:32:30;14;13;
73973;PMS5003;62336;-26.094;27.994;2023-03-05T13:34:54;11;11;
73973;PMS5003;62336;-26.094;27.994;2023-03-05T13:37:20;15;13;
73973;PMS5003;62336;-26.094;27.994;2023-03-05T13:39:47;12;12;
73973;PMS5003;62336;-26.094;27.994;2023-03-05T13:42:14;11;11;
73973;PMS5003;62336;-26.094;27.994;2023-03-05T13:44:34;11;11;
73973;PMS5003;62336;-26.094;27.994;2023-03-05T13:47:06;10;10;
73973;PMS5003;62336;-26.094;27.994;2023-03-05T13:49:25;9;8;
73973;PMS5003;62336;-26.094;27.994;2023-03-05T13:51:51;8;8;
73973;PMS5003;62336;-26.094;27.994;2023-03-05T13:54:15;10;10;
73973;PMS5003;62336;-26.094;27.994;2023-03-05T13:59:15;8;7;
73973;PMS5003;62336;-26.094;27.994;2023-03-05T14:01:31;8;7;
73973;PMS5003;62336;-26.094;27.994;2023-03-05T14:03:56;7;7;
73973;PMS5003;62336;-26.094;27.994;2023-03-05T14:06:21;6;6;
73973;PMS5003;62336;-26.094;27.994;2023-03-05T14:08:48;8;8;
73973;PMS5003;62336;-26.094;27.994;2023-03-05T14:11:11;7;7;
73973;PMS5003;62336;-26.094;27.994;2023-03-05T14:13:36;9;9;
73973;PMS5003;62336;-26.094;27.994;2023-03-05T14:16:03;7;7;
73973;PMS5003;62336;-26.094;27.994;2023-03-05T14:18:26;9;9;
73973;PMS5003;62336;-26.094;27.994;2023-03-05T14:20:57;9;9;
73973;PMS5003;62336;-26.094;27.994;2023-03-05T14:23:24;10;9;
73973;PMS5003;62336;-26.094;27.994;2023-03-05T14:25:41;13;13;
73973;PMS5003;62336;-26.094;27.994;2023-03-05T14:30:32;11;11;
73973;PMS5003;62336;-26.094;27.994;2023-03-05T14:32:57;12;12;
73973;PMS5003;62336;-26.094;27.994;2023-03-05T14:35:24;15;15;
73973;PMS5003;62336;-26.094;27.994;2023-03-05T14:37:48;14;14;
73973;PMS5003;62336;-26.094;27.994;2023-03-05T14:47:28;15;15;
73973;PMS5003;62336;-26.094;27.994;2023-03-05T14:49:53;18;18;
73973;PMS5003;62336;-26.094;27.994;2023-03-05T14:52:19;16;15;
73973;PMS5003;62336;-26.094;27.994;2023-03-05T14:54:43;16;16;
73973;PMS5003;62336;-26.094;27.994;2023-03-05T14:57:09;14;14;
73973;PMS5003;62336;-26.094;27.994;2023-03-05T14:59:33;15;15;
73973;PMS5003;62336;-26.094;27.994;2023-03-05T15:01:58;15;15;
73973;PMS5003;62336;-26.094;27.994;2023-03-05T15:04:24;17;17;
73973;PMS5003;62336;-26.094;27.994;2023-03-05T15:06:49;16;16;
73973;PMS5003;62336;-26.094;27.994;2023-03-05T15:09:14;17;16;
73973;PMS5003;62336;-26.094;27.994;2023-03-05T15:11:39;16;16;
73973;PMS5003;62336;-26.094;27.994;2023-03-05T15:14:05;15;15;
73973;PMS5003;62336;-26.094;27.994;2023-03-05T15:16:30;15;14;
73973;PMS5003;62336;-26.094;27.994;2023-03-05T15:18:55;15;15;
73973;PMS5003;62336;-26.094;27.994;2023-03-05T15:21:20;14;14;
73973;PMS5003;62336;-26.094;27.994;2023-03-05T15:23:45;16;16;
73973;PMS5003;62336;-26.094;27.994;2023-03-05T15:26:12;15;15;
73973;PMS5003;62336;-26.094;27.994;2023-03-05T15:28:37;13;13;
73973;PMS5003;62336;-26.094;27.994;2023-03-05T15:31:02;12;12;
73973;PMS5003;62336;-26.094;27.994;2023-03-05T15:33:27;14;14;
73973;PMS5003;62336;-26.094;27.994;2023-03-05T15:35:51;14;13;
73973;PMS5003;62336;-26.094;27.994;2023-03-05T15:38:17;13;13;
73973;PMS5003;62336;-26.094;27.994;2023-03-05T15:40:43;11;11;
73973;PMS5003;62336;-26.094;27.994;2023-03-05T15:43:08;12;12;
73973;PMS5003;62336;-26.094;27.994;2023-03-05T15:45:32;11;11;
73973;PMS5003;62336;-26.094;27.994;2023-03-05T15:47:58;11;10;
73973;PMS5003;62336;-26.094;27.994;2023-03-05T15:50:23;9;9;
73973;PMS5003;62336;-26.094;27.994;2023-03-05T15:52:48;11;11;
73973;PMS5003;62336;-26.094;27.994;2023-03-05T15:55:13;11;11;
73973;PMS5003;62336;-26.094;27.994;2023-03-05T15:57:41;8;8;
73973;PMS5003;62336;-26.094;27.994;2023-03-05T16:00:04;9;9;
73973;PMS5003;62336;-26.094;27.994;2023-03-05T16:02:28;8;7;
73973;PMS5003;62336;-26.094;27.994;2023-03-05T16:04:53;9;9;
73973;PMS5003;62336;-26.094;27.994;2023-03-05T16:07:18;9;9;